sensor_id;sensor_type;location;lat;lon;timestamp;temperature;humidity
4699;DHT22;33708;49.466;11.176;2023-07-13T00:01:44;22.70;1.00
4699;DHT22;33708;49.466;11.176;2023-07-13T00:04:13;22.70;1.00
4699;DHT22;33708;49.466;11.176;2023-07-13T00:06:38;22.60;1.00
4699;DHT22;33708;49.466;11.176;2023-07-13T00:09:04;22.50;1.00
4699;DHT22;33708;49.466;11.176;2023-07-13T00:11:30;22.40;1.00
4699;DHT22;33708;49.466;11.176;2023-07-13T00:13:55;22.40;1.00
4699;DHT22;33708;49.466;11.176;2023-07-13T00:16:21;22.30;1.00
4699;DHT22;33708;49.466;11.176;2023-07-13T00:18:47;22.30;1.00
4699;DHT22;33708;49.466;11.176;2023-07-13T00:21:12;22.20;1.00
4699;DHT22;33708;49.466;11.176;2023-07-13T00:23:41;22.30;1.00
4699;DHT22;33708;49.466;11.176;2023-07-13T00:26:09;22.20;1.00
4699;DHT22;33708;49.466;11.176;2023-07-13T00:28:35;22.20;1.00
4699;DHT22;33708;49.466;11.176;2023-07-13T00:31:01;22.20;1.00
4699;DHT22;33708;49.466;11.176;2023-07-13T00:33:28;22.10;1.00
4699;DHT22;33708;49.466;11.176;2023-07-13T00:35:55;22.00;1.00
4699;DHT22;33708;49.466;11.176;2023-07-13T00:38:22;22.10;1.00
4699;DHT22;33708;49.466;11.176;2023-07-13T00:40:48;22.10;1.00
4699;DHT22;33708;49.466;11.176;2023-07-13T00:43:18;22.10;1.00
4699;DHT22;33708;49.466;11.176;2023-07-13T00:48:15;22.10;1.00
4699;DHT22;33708;49.466;11.176;2023-07-13T00:50:44;22.10;1.00
4699;DHT22;33708;49.466;11.176;2023-07-13T00:53:11;22.10;1.00
4699;DHT22;33708;49.466;11.176;2023-07-13T00:55:37;22.10;1.00
4699;DHT22;33708;49.466;11.176;2023-07-13T00:58:03;22.10;1.00
4699;DHT22;33708;49.466;11.176;2023-07-13T01:00:30;22.10;1.00
4699;DHT22;33708;49.466;11.176;2023-07-13T01:02:56;22.10;1.00
4699;DHT22;33708;49.466;11.176;2023-07-13T01:05:22;22.10;1.00
4699;DHT22;33708;49.466;11.176;2023-07-13T01:07:50;22.00;1.00
4699;DHT22;33708;49.466;11.176;2023-07-13T01:10:21;21.80;1.00
4699;DHT22;33708;49.466;11.176;2023-07-13T01:12:46;21.70;1.00
4699;DHT22;33708;49.466;11.176;2023-07-13T01:15:42;21.60;1.00
4699;DHT22;33708;49.466;11.176;2023-07-13T01:18:11;21.50;1.00
4699;DHT22;33708;49.466;11.176;2023-07-13T01:20:38;21.40;1.00
4699;DHT22;33708;49.466;11.176;2023-07-13T01:23:05;21.30;1.00
4699;DHT22;33708;49.466;11.176;2023-07-13T01:25:32;21.20;1.00
4699;DHT22;33708;49.466;11.176;2023-07-13T01:27:57;21.20;1.00
4699;DHT22;33708;49.466;11.176;2023-07-13T01:30:23;21.10;1.00
4699;DHT22;33708;49.466;11.176;2023-07-13T01:32:48;21.00;1.00
4699;DHT22;33708;49.466;11.176;2023-07-13T01:35:14;20.90;1.00
4699;DHT22;33708;49.466;11.176;2023-07-13T01:37:42;20.90;1.00
4699;DHT22;33708;49.466;11.176;2023-07-13T01:40:08;20.80;1.00
4699;DHT22;33708;49.466;11.176;2023-07-13T01:42:34;20.70;1.00
4699;DHT22;33708;49.466;11.176;2023-07-13T01:44:59;20.70;1.00
4699;DHT22;33708;49.466;11.176;2023-07-13T01:47:25;20.70;1.00
4699;DHT22;33708;49.466;11.176;2023-07-13T01:49:51;20.70;1.00
4699;DHT22;33708;49.466;11.176;2023-07-13T01:52:17;20.50;1.00
4699;DHT22;33708;49.466;11.176;2023-07-13T01:54:43;20.40;1.00
4699;DHT22;33708;49.466;11.176;2023-07-13T01:57:08;20.40;1.00
4699;DHT22;33708;49.466;11.176;2023-07-13T01:59:34;20.40;1.00
4699;DHT22;33708;49.466;11.176;2023-07-13T02:02:00;20.30;1.00
4699;DHT22;33708;49.466;11.176;2023-07-13T02:04:25;20.30;1.00
4699;DHT22;33708;49.466;11.176;2023-07-13T02:06:51;20.20;1.00
4699;DHT22;33708;49.466;11.176;2023-07-13T02:09:16;20.20;1.00
4699;DHT22;33708;49.466;11.176;2023-07-13T02:11:42;20.20;1.00
4699;DHT22;33708;49.466;11.176;2023-07-13T02:14:08;20.10;1.00
4699;DHT22;33708;49.466;11.176;2023-07-13T02:16:33;20.10;1.00
4699;DHT22;33708;49.466;11.176;2023-07-13T02:18:59;20.00;1.00
4699;DHT22;33708;49.466;11.176;2023-07-13T02:21:25;20.00;1.00
4699;DHT22;33708;49.466;11.176;2023-07-13T02:23:51;20.10;1.00
4699;DHT22;33708;49.466;11.176;2023-07-13T02:26:18;20.00;1.00
4699;DHT22;33708;49.466;11.176;2023-07-13T02:28:43;20.00;1.00
4699;DHT22;33708;49.466;11.176;2023-07-13T02:31:12;20.00;1.00
4699;DHT22;33708;49.466;11.176;2023-07-13T02:33:38;19.90;1.00
4699;DHT22;33708;49.466;11.176;2023-07-13T02:36:04;19.80;1.00
4699;DHT22;33708;49.466;11.176;2023-07-13T02:38:31;19.80;1.00
4699;DHT22;33708;49.466;11.176;2023-07-13T02:40:59;19.80;1.00
4699;DHT22;33708;49.466;11.176;2023-07-13T02:43:25;19.80;1.00
4699;DHT22;33708;49.466;11.176;2023-07-13T02:45:50;19.70;1.00
4699;DHT22;33708;49.466;11.176;2023-07-13T02:48:16;19.70;1.00
4699;DHT22;33708;49.466;11.176;2023-07-13T02:50:43;19.50;1.00
4699;DHT22;33708;49.466;11.176;2023-07-13T02:53:09;19.50;1.00
4699;DHT22;33708;49.466;11.176;2023-07-13T02:55:34;19.40;1.00
4699;DHT22;33708;49.466;11.176;2023-07-13T02:58:00;19.30;1.00
4699;DHT22;33708;49.466;11.176;2023-07-13T03:00:26;19.30;1.00
4699;DHT22;33708;49.466;11.176;2023-07-13T03:02:53;19.20;1.00
4699;DHT22;33708;49.466;11.176;2023-07-13T03:05:18;19.20;1.00
4699;DHT22;33708;49.466;11.176;2023-07-13T03:07:44;19.20;1.00
4699;DHT22;33708;49.466;11.176;2023-07-13T03:10:10;19.20;1.00
4699;DHT22;33708;49.466;11.176;2023-07-13T03:12:35;19.10;1.00
4699;DHT22;33708;49.466;11.176;2023-07-13T03:15:01;19.30;1.00
4699;DHT22;33708;49.466;11.176;2023-07-13T03:17:27;18.90;1.00
4699;DHT22;33708;49.466;11.176;2023-07-13T03:19:53;18.80;1.00
4699;DHT22;33708;49.466;11.176;2023-07-13T03:22:19;18.80;1.00
4699;DHT22;33708;49.466;11.176;2023-07-13T03:24:45;18.80;1.00
4699;DHT22;33708;49.466;11.176;2023-07-13T03:27:11;18.80;1.00
4699;DHT22;33708;49.466;11.176;2023-07-13T03:29:37;18.60;1.00
4699;DHT22;33708;49.466;11.176;2023-07-13T03:32:03;18.80;1.00
4699;DHT22;33708;49.466;11.176;2023-07-13T03:34:30;18.70;1.00
4699;DHT22;33708;49.466;11.176;2023-07-13T03:36:55;18.70;1.00
4699;DHT22;33708;49.466;11.176;2023-07-13T03:39:21;18.70;1.00
4699;DHT22;33708;49.466;11.176;2023-07-13T03:41:47;18.80;1.00
4699;DHT22;33708;49.466;11.176;2023-07-13T03:44:12;18.90;1.00
4699;DHT22;33708;49.466;11.176;2023-07-13T03:46:38;19.00;1.00
4699;DHT22;33708;49.466;11.176;2023-07-13T03:49:05;19.10;1.00
4699;DHT22;33708;49.466;11.176;2023-07-13T03:51:31;19.20;1.00
4699;DHT22;33708;49.466;11.176;2023-07-13T03:53:56;19.20;1.00
4699;DHT22;33708;49.466;11.176;2023-07-13T03:56:23;19.40;1.00
4699;DHT22;33708;49.466;11.176;2023-07-13T03:58:50;19.50;1.00
4699;DHT22;33708;49.466;11.176;2023-07-13T04:01:17;19.60;1.00
4699;DHT22;33708;49.466;11.176;2023-07-13T04:03:43;20.00;1.00
4699;DHT22;33708;49.466;11.176;2023-07-13T04:06:16;20.90;1.00
4699;DHT22;33708;49.466;11.176;2023-07-13T04:08:48;22.10;1.00
4699;DHT22;33708;49.466;11.176;2023-07-13T04:11:14;23.30;1.00
4699;DHT22;33708;49.466;11.176;2023-07-13T04:13:40;23.60;1.00
4699;DHT22;33708;49.466;11.176;2023-07-13T04:16:05;24.00;1.00
4699;DHT22;33708;49.466;11.176;2023-07-13T04:18:31;23.00;1.00
4699;DHT22;33708;49.466;11.176;2023-07-13T04:20:56;22.80;1.00
4699;DHT22;33708;49.466;11.176;2023-07-13T04:23:22;22.40;1.00
4699;DHT22;33708;49.466;11.176;2023-07-13T04:25:48;22.20;1.00
4699;DHT22;33708;49.466;11.176;2023-07-13T04:28:15;21.70;1.00
4699;DHT22;33708;49.466;11.176;2023-07-13T04:30:43;21.90;1.00
4699;DHT22;33708;49.466;11.176;2023-07-13T04:33:09;21.80;1.00
4699;DHT22;33708;49.466;11.176;2023-07-13T04:35:35;22.10;1.00
4699;DHT22;33708;49.466;11.176;2023-07-13T04:38:01;22.80;1.00
4699;DHT22;33708;49.466;11.176;2023-07-13T04:40:28;22.50;1.00
4699;DHT22;33708;49.466;11.176;2023-07-13T04:42:54;22.80;1.00
4699;DHT22;33708;49.466;11.176;2023-07-13T04:45:19;23.00;1.00
4699;DHT22;33708;49.466;11.176;2023-07-13T04:47:45;23.10;1.00
4699;DHT22;33708;49.466;11.176;2023-07-13T04:50:12;22.80;1.00
4699;DHT22;33708;49.466;11.176;2023-07-13T04:52:41;22.90;1.00
4699;DHT22;33708;49.466;11.176;2023-07-13T04:55:07;23.40;1.00
4699;DHT22;33708;49.466;11.176;2023-07-13T04:57:33;24.80;1.00
4699;DHT22;33708;49.466;11.176;2023-07-13T04:59:59;26.20;1.00
4699;DHT22;33708;49.466;11.176;2023-07-13T05:02:27;29.00;1.00
4699;DHT22;33708;49.466;11.176;2023-07-13T05:04:53;28.30;1.00
4699;DHT22;33708;49.466;11.176;2023-07-13T05:07:19;29.00;1.00
4699;DHT22;33708;49.466;11.176;2023-07-13T05:09:44;31.70;1.00
4699;DHT22;33708;49.466;11.176;2023-07-13T05:12:10;33.40;1.00
4699;DHT22;33708;49.466;11.176;2023-07-13T05:14:36;32.70;1.00
4699;DHT22;33708;49.466;11.176;2023-07-13T05:17:01;31.90;1.00
4699;DHT22;33708;49.466;11.176;2023-07-13T05:19:28;33.30;1.00
4699;DHT22;33708;49.466;11.176;2023-07-13T05:21:53;31.40;1.00
4699;DHT22;33708;49.466;11.176;2023-07-13T05:24:19;32.90;1.00
4699;DHT22;33708;49.466;11.176;2023-07-13T05:26:45;33.10;1.00
4699;DHT22;33708;49.466;11.176;2023-07-13T05:29:11;33.10;1.00
4699;DHT22;33708;49.466;11.176;2023-07-13T05:31:36;32.90;1.00
4699;DHT22;33708;49.466;11.176;2023-07-13T05:34:02;30.70;1.00
4699;DHT22;33708;49.466;11.176;2023-07-13T05:36:28;29.40;1.00
4699;DHT22;33708;49.466;11.176;2023-07-13T05:38:53;30.20;1.00
4699;DHT22;33708;49.466;11.176;2023-07-13T05:41:19;32.50;1.00
4699;DHT22;33708;49.466;11.176;2023-07-13T05:43:58;34.70;1.00
4699;DHT22;33708;49.466;11.176;2023-07-13T05:46:24;37.20;1.00
4699;DHT22;33708;49.466;11.176;2023-07-13T05:48:49;38.50;1.00
4699;DHT22;33708;49.466;11.176;2023-07-13T05:51:15;38.10;1.00
4699;DHT22;33708;49.466;11.176;2023-07-13T05:53:41;34.40;1.00
4699;DHT22;33708;49.466;11.176;2023-07-13T05:56:06;35.00;1.00
4699;DHT22;33708;49.466;11.176;2023-07-13T05:58:32;34.00;1.00
4699;DHT22;33708;49.466;11.176;2023-07-13T06:01:03;32.50;1.00
4699;DHT22;33708;49.466;11.176;2023-07-13T06:03:30;31.60;1.00
4699;DHT22;33708;49.466;11.176;2023-07-13T06:05:56;31.00;1.00
4699;DHT22;33708;49.466;11.176;2023-07-13T06:08:26;31.70;1.00
4699;DHT22;33708;49.466;11.176;2023-07-13T06:10:52;31.00;1.00
4699;DHT22;33708;49.466;11.176;2023-07-13T06:13:18;31.80;1.00
4699;DHT22;33708;49.466;11.176;2023-07-13T06:15:50;32.60;1.00
4699;DHT22;33708;49.466;11.176;2023-07-13T06:18:16;34.60;1.00
4699;DHT22;33708;49.466;11.176;2023-07-13T06:20:42;35.50;1.00
4699;DHT22;33708;49.466;11.176;2023-07-13T06:23:07;32.50;1.00
4699;DHT22;33708;49.466;11.176;2023-07-13T06:25:33;29.80;1.00
4699;DHT22;33708;49.466;11.176;2023-07-13T06:28:00;29.40;1.00
4699;DHT22;33708;49.466;11.176;2023-07-13T06:30:26;29.20;1.00
4699;DHT22;33708;49.466;11.176;2023-07-13T06:32:52;30.00;1.00
4699;DHT22;33708;49.466;11.176;2023-07-13T06:35:17;31.20;1.00
4699;DHT22;33708;49.466;11.176;2023-07-13T06:37:43;32.70;1.00
4699;DHT22;33708;49.466;11.176;2023-07-13T06:40:09;34.20;1.00
4699;DHT22;33708;49.466;11.176;2023-07-13T06:42:35;37.20;1.00
4699;DHT22;33708;49.466;11.176;2023-07-13T06:45:00;35.70;1.00
4699;DHT22;33708;49.466;11.176;2023-07-13T06:47:26;35.40;1.00
4699;DHT22;33708;49.466;11.176;2023-07-13T06:49:52;36.70;1.00
4699;DHT22;33708;49.466;11.176;2023-07-13T06:52:18;35.40;1.00
4699;DHT22;33708;49.466;11.176;2023-07-13T06:54:44;34.60;1.00
4699;DHT22;33708;49.466;11.176;2023-07-13T06:57:09;31.60;1.00
4699;DHT22;33708;49.466;11.176;2023-07-13T06:59:35;30.10;1.00
4699;DHT22;33708;49.466;11.176;2023-07-13T07:02:00;28.90;1.00
4699;DHT22;33708;49.466;11.176;2023-07-13T07:04:26;28.60;1.00
4699;DHT22;33708;49.466;11.176;2023-07-13T07:06:52;31.70;1.00
4699;DHT22;33708;49.466;11.176;2023-07-13T07:09:18;29.70;1.00
4699;DHT22;33708;49.466;11.176;2023-07-13T07:11:43;28.40;1.00
4699;DHT22;33708;49.466;11.176;2023-07-13T07:14:09;27.80;1.00
4699;DHT22;33708;49.466;11.176;2023-07-13T07:16:35;31.70;1.00
4699;DHT22;33708;49.466;11.176;2023-07-13T07:19:03;33.20;1.00
4699;DHT22;33708;49.466;11.176;2023-07-13T07:21:29;30.10;1.00
4699;DHT22;33708;49.466;11.176;2023-07-13T07:23:55;30.40;1.00
4699;DHT22;33708;49.466;11.176;2023-07-13T07:26:20;34.50;1.00
4699;DHT22;33708;49.466;11.176;2023-07-13T07:28:46;37.50;1.00
4699;DHT22;33708;49.466;11.176;2023-07-13T07:31:12;36.60;1.00
4699;DHT22;33708;49.466;11.176;2023-07-13T07:33:37;36.80;1.00
4699;DHT22;33708;49.466;11.176;2023-07-13T07:36:03;36.00;1.00
4699;DHT22;33708;49.466;11.176;2023-07-13T07:38:29;38.00;1.00
4699;DHT22;33708;49.466;11.176;2023-07-13T07:40:55;38.10;1.00
4699;DHT22;33708;49.466;11.176;2023-07-13T07:43:20;38.50;1.00
4699;DHT22;33708;49.466;11.176;2023-07-13T07:45:46;37.50;1.00
4699;DHT22;33708;49.466;11.176;2023-07-13T07:48:12;38.30;1.00
4699;DHT22;33708;49.466;11.176;2023-07-13T07:50:38;35.30;1.00
4699;DHT22;33708;49.466;11.176;2023-07-13T07:53:05;33.00;1.00
4699;DHT22;33708;49.466;11.176;2023-07-13T07:55:33;31.50;1.00
4699;DHT22;33708;49.466;11.176;2023-07-13T07:58:00;30.80;1.00
4699;DHT22;33708;49.466;11.176;2023-07-13T08:00:25;32.70;1.00
4699;DHT22;33708;49.466;11.176;2023-07-13T08:02:51;35.40;1.00
4699;DHT22;33708;49.466;11.176;2023-07-13T08:05:16;36.30;1.00
4699;DHT22;33708;49.466;11.176;2023-07-13T08:07:42;35.60;1.00
4699;DHT22;33708;49.466;11.176;2023-07-13T08:10:08;35.90;1.00
4699;DHT22;33708;49.466;11.176;2023-07-13T08:12:35;36.50;1.00
4699;DHT22;33708;49.466;11.176;2023-07-13T08:15:01;36.50;1.00
4699;DHT22;33708;49.466;11.176;2023-07-13T08:17:27;39.40;1.00
4699;DHT22;33708;49.466;11.176;2023-07-13T08:19:53;40.50;1.00
4699;DHT22;33708;49.466;11.176;2023-07-13T08:22:19;38.60;1.00
4699;DHT22;33708;49.466;11.176;2023-07-13T08:24:44;35.70;1.00
4699;DHT22;33708;49.466;11.176;2023-07-13T08:27:10;36.70;1.00
4699;DHT22;33708;49.466;11.176;2023-07-13T08:29:37;39.20;1.00
4699;DHT22;33708;49.466;11.176;2023-07-13T08:32:02;37.60;1.00
4699;DHT22;33708;49.466;11.176;2023-07-13T08:34:28;39.80;1.00
4699;DHT22;33708;49.466;11.176;2023-07-13T08:36:57;40.00;1.00
4699;DHT22;33708;49.466;11.176;2023-07-13T08:39:22;40.20;1.00
4699;DHT22;33708;49.466;11.176;2023-07-13T08:41:52;39.70;1.00
4699;DHT22;33708;49.466;11.176;2023-07-13T08:44:42;40.20;1.00
4699;DHT22;33708;49.466;11.176;2023-07-13T08:47:14;39.50;1.00
4699;DHT22;33708;49.466;11.176;2023-07-13T08:49:41;38.90;1.00
4699;DHT22;33708;49.466;11.176;2023-07-13T08:52:12;38.30;1.00
4699;DHT22;33708;49.466;11.176;2023-07-13T08:54:47;39.30;1.00
4699;DHT22;33708;49.466;11.176;2023-07-13T08:57:21;36.70;1.00
4699;DHT22;33708;49.466;11.176;2023-07-13T08:59:47;37.00;1.00
4699;DHT22;33708;49.466;11.176;2023-07-13T09:02:28;38.10;1.00
4699;DHT22;33708;49.466;11.176;2023-07-13T09:05:30;35.70;1.00
4699;DHT22;33708;49.466;11.176;2023-07-13T09:10:58;39.30;1.00
4699;DHT22;33708;49.466;11.176;2023-07-13T09:13:40;38.90;1.00
4699;DHT22;33708;49.466;11.176;2023-07-13T09:16:09;38.60;1.00
4699;DHT22;33708;49.466;11.176;2023-07-13T09:18:39;39.70;1.00
4699;DHT22;33708;49.466;11.176;2023-07-13T09:24:41;37.50;1.00
4699;DHT22;33708;49.466;11.176;2023-07-13T09:27:15;37.80;1.00
4699;DHT22;33708;49.466;11.176;2023-07-13T09:32:32;36.70;1.00
4699;DHT22;33708;49.466;11.176;2023-07-13T09:34:58;39.40;1.00
4699;DHT22;33708;49.466;11.176;2023-07-13T09:37:30;38.50;1.00
4699;DHT22;33708;49.466;11.176;2023-07-13T09:39:58;39.10;1.00
4699;DHT22;33708;49.466;11.176;2023-07-13T09:42:25;39.30;1.00
4699;DHT22;33708;49.466;11.176;2023-07-13T09:45:00;40.10;1.00
4699;DHT22;33708;49.466;11.176;2023-07-13T09:47:30;40.70;1.00
4699;DHT22;33708;49.466;11.176;2023-07-13T09:50:09;40.40;1.00
4699;DHT22;33708;49.466;11.176;2023-07-13T09:52:46;39.20;1.00
4699;DHT22;33708;49.466;11.176;2023-07-13T09:55:32;38.50;1.00
4699;DHT22;33708;49.466;11.176;2023-07-13T09:58:19;38.40;1.00
4699;DHT22;33708;49.466;11.176;2023-07-13T10:00:58;35.50;1.00
4699;DHT22;33708;49.466;11.176;2023-07-13T10:03:29;31.80;1.00
4699;DHT22;33708;49.466;11.176;2023-07-13T10:06:20;31.50;1.00
4699;DHT22;33708;49.466;11.176;2023-07-13T10:08:52;31.30;1.00
4699;DHT22;33708;49.466;11.176;2023-07-13T10:11:26;29.40;1.00
4699;DHT22;33708;49.466;11.176;2023-07-13T10:14:00;29.10;1.00
4699;DHT22;33708;49.466;11.176;2023-07-13T10:16:35;29.30;1.00
4699;DHT22;33708;49.466;11.176;2023-07-13T10:19:06;29.00;1.00
4699;DHT22;33708;49.466;11.176;2023-07-13T10:21:43;29.40;1.00
4699;DHT22;33708;49.466;11.176;2023-07-13T10:24:23;28.70;1.00
4699;DHT22;33708;49.466;11.176;2023-07-13T10:26:57;28.80;1.00
4699;DHT22;33708;49.466;11.176;2023-07-13T10:29:27;28.70;1.00
4699;DHT22;33708;49.466;11.176;2023-07-13T10:31:53;28.60;1.00
4699;DHT22;33708;49.466;11.176;2023-07-13T10:34:19;28.30;1.00
4699;DHT22;33708;49.466;11.176;2023-07-13T10:36:47;28.10;1.00
4699;DHT22;33708;49.466;11.176;2023-07-13T10:39:19;27.60;1.00
4699;DHT22;33708;49.466;11.176;2023-07-13T10:41:48;27.80;1.00
4699;DHT22;33708;49.466;11.176;2023-07-13T10:44:28;27.20;1.00
4699;DHT22;33708;49.466;11.176;2023-07-13T10:47:04;27.70;1.00
4699;DHT22;33708;49.466;11.176;2023-07-13T10:49:33;28.30;1.00
4699;DHT22;33708;49.466;11.176;2023-07-13T10:52:00;28.30;1.00
4699;DHT22;33708;49.466;11.176;2023-07-13T10:57:18;29.00;1.00
4699;DHT22;33708;49.466;11.176;2023-07-13T11:00:12;27.70;1.00
4699;DHT22;33708;49.466;11.176;2023-07-13T11:02:35;27.70;1.00
4699;DHT22;33708;49.466;11.176;2023-07-13T11:05:26;28.00;1.00
4699;DHT22;33708;49.466;11.176;2023-07-13T11:07:56;28.10;1.00
4699;DHT22;33708;49.466;11.176;2023-07-13T11:10:48;27.60;1.00
4699;DHT22;33708;49.466;11.176;2023-07-13T11:13:55;27.90;1.00
4699;DHT22;33708;49.466;11.176;2023-07-13T11:22:13;27.70;1.00
4699;DHT22;33708;49.466;11.176;2023-07-13T11:24:52;27.50;1.00
4699;DHT22;33708;49.466;11.176;2023-07-13T11:35:49;27.90;1.00
4699;DHT22;33708;49.466;11.176;2023-07-13T11:38:20;28.10;1.00
4699;DHT22;33708;49.466;11.176;2023-07-13T11:40:48;28.30;1.00
4699;DHT22;33708;49.466;11.176;2023-07-13T11:43:16;27.90;1.00
4699;DHT22;33708;49.466;11.176;2023-07-13T11:45:43;27.20;1.00
4699;DHT22;33708;49.466;11.176;2023-07-13T11:48:29;28.50;1.00
4699;DHT22;33708;49.466;11.176;2023-07-13T11:51:04;28.60;1.00
4699;DHT22;33708;49.466;11.176;2023-07-13T11:53:40;27.90;1.00
4699;DHT22;33708;49.466;11.176;2023-07-13T11:56:06;27.90;1.00
4699;DHT22;33708;49.466;11.176;2023-07-13T11:58:32;28.30;1.00
4699;DHT22;33708;49.466;11.176;2023-07-13T12:01:00;28.60;1.00
4699;DHT22;33708;49.466;11.176;2023-07-13T12:03:30;28.10;1.00
4699;DHT22;33708;49.466;11.176;2023-07-13T12:08:27;28.30;1.00
4699;DHT22;33708;49.466;11.176;2023-07-13T12:11:00;28.20;1.00
4699;DHT22;33708;49.466;11.176;2023-07-13T12:13:35;28.40;1.00
4699;DHT22;33708;49.466;11.176;2023-07-13T12:16:02;28.30;1.00
4699;DHT22;33708;49.466;11.176;2023-07-13T12:18:33;28.40;1.00
4699;DHT22;33708;49.466;11.176;2023-07-13T12:21:00;28.60;1.00
4699;DHT22;33708;49.466;11.176;2023-07-13T12:23:32;28.50;1.00
4699;DHT22;33708;49.466;11.176;2023-07-13T12:26:01;29.20;1.00
4699;DHT22;33708;49.466;11.176;2023-07-13T12:31:01;29.60;1.00
4699;DHT22;33708;49.466;11.176;2023-07-13T12:33:29;29.40;1.00
4699;DHT22;33708;49.466;11.176;2023-07-13T12:35:57;29.40;1.00
4699;DHT22;33708;49.466;11.176;2023-07-13T12:38:25;29.10;1.00
4699;DHT22;33708;49.466;11.176;2023-07-13T12:40:52;29.20;1.00
4699;DHT22;33708;49.466;11.176;2023-07-13T12:43:21;29.20;1.00
4699;DHT22;33708;49.466;11.176;2023-07-13T12:46:03;28.90;1.00
4699;DHT22;33708;49.466;11.176;2023-07-13T12:48:38;28.90;1.00
4699;DHT22;33708;49.466;11.176;2023-07-13T12:51:10;28.60;1.00
4699;DHT22;33708;49.466;11.176;2023-07-13T12:53:43;28.60;1.00
4699;DHT22;33708;49.466;11.176;2023-07-13T12:56:20;28.90;1.00
4699;DHT22;33708;49.466;11.176;2023-07-13T12:58:47;29.20;1.00
4699;DHT22;33708;49.466;11.176;2023-07-13T13:01:20;29.10;1.00
4699;DHT22;33708;49.466;11.176;2023-07-13T13:03:49;29.30;1.00
4699;DHT22;33708;49.466;11.176;2023-07-13T13:06:23;29.30;1.00
4699;DHT22;33708;49.466;11.176;2023-07-13T13:08:58;29.30;1.00
4699;DHT22;33708;49.466;11.176;2023-07-13T13:11:25;29.50;1.00
4699;DHT22;33708;49.466;11.176;2023-07-13T13:13:51;29.50;1.00
4699;DHT22;33708;49.466;11.176;2023-07-13T13:16:29;29.50;1.00
4699;DHT22;33708;49.466;11.176;2023-07-13T13:18:59;30.00;1.00
4699;DHT22;33708;49.466;11.176;2023-07-13T13:21:27;30.20;1.00
4699;DHT22;33708;49.466;11.176;2023-07-13T13:23:52;30.30;1.00
4699;DHT22;33708;49.466;11.176;2023-07-13T13:26:20;29.20;1.00
4699;DHT22;33708;49.466;11.176;2023-07-13T13:28:46;29.20;1.00
4699;DHT22;33708;49.466;11.176;2023-07-13T13:31:15;28.40;1.00
4699;DHT22;33708;49.466;11.176;2023-07-13T13:33:42;28.40;1.00
4699;DHT22;33708;49.466;11.176;2023-07-13T13:36:20;28.40;1.00
4699;DHT22;33708;49.466;11.176;2023-07-13T13:38:47;28.50;1.00
4699;DHT22;33708;49.466;11.176;2023-07-13T13:41:14;28.40;1.00
4699;DHT22;33708;49.466;11.176;2023-07-13T13:43:41;29.20;1.00
4699;DHT22;33708;49.466;11.176;2023-07-13T13:46:16;29.90;1.00
4699;DHT22;33708;49.466;11.176;2023-07-13T13:48:43;28.80;1.00
4699;DHT22;33708;49.466;11.176;2023-07-13T13:51:20;28.50;1.00
4699;DHT22;33708;49.466;11.176;2023-07-13T13:53:47;29.10;1.00
4699;DHT22;33708;49.466;11.176;2023-07-13T13:56:14;28.60;1.00
4699;DHT22;33708;49.466;11.176;2023-07-13T13:58:40;28.80;1.00
4699;DHT22;33708;49.466;11.176;2023-07-13T14:01:19;28.80;1.00
4699;DHT22;33708;49.466;11.176;2023-07-13T14:03:45;29.20;1.00
4699;DHT22;33708;49.466;11.176;2023-07-13T14:06:15;29.40;1.00
4699;DHT22;33708;49.466;11.176;2023-07-13T14:08:41;29.60;1.00
4699;DHT22;33708;49.466;11.176;2023-07-13T14:11:11;29.10;1.00
4699;DHT22;33708;49.466;11.176;2023-07-13T14:13:42;28.70;1.00
4699;DHT22;33708;49.466;11.176;2023-07-13T14:16:13;28.50;1.00
4699;DHT22;33708;49.466;11.176;2023-07-13T14:18:40;28.30;1.00
4699;DHT22;33708;49.466;11.176;2023-07-13T14:21:15;28.10;1.00
4699;DHT22;33708;49.466;11.176;2023-07-13T14:23:43;28.00;1.00
4699;DHT22;33708;49.466;11.176;2023-07-13T14:26:15;28.30;1.00
4699;DHT22;33708;49.466;11.176;2023-07-13T14:28:43;28.70;1.00
4699;DHT22;33708;49.466;11.176;2023-07-13T14:31:10;29.50;1.00
4699;DHT22;33708;49.466;11.176;2023-07-13T14:33:36;29.00;1.00
4699;DHT22;33708;49.466;11.176;2023-07-13T14:36:03;28.50;1.00
4699;DHT22;33708;49.466;11.176;2023-07-13T14:38:28;27.80;1.00
4699;DHT22;33708;49.466;11.176;2023-07-13T14:40:54;28.10;1.00
4699;DHT22;33708;49.466;11.176;2023-07-13T14:43:20;28.90;1.00
4699;DHT22;33708;49.466;11.176;2023-07-13T14:45:49;29.70;1.00
4699;DHT22;33708;49.466;11.176;2023-07-13T14:48:25;29.50;1.00
4699;DHT22;33708;49.466;11.176;2023-07-13T14:50:54;28.50;1.00
4699;DHT22;33708;49.466;11.176;2023-07-13T14:53:21;28.30;1.00
4699;DHT22;33708;49.466;11.176;2023-07-13T14:55:47;28.80;1.00
4699;DHT22;33708;49.466;11.176;2023-07-13T14:58:13;29.00;1.00
4699;DHT22;33708;49.466;11.176;2023-07-13T15:00:39;28.70;1.00
4699;DHT22;33708;49.466;11.176;2023-07-13T15:03:16;28.60;1.00
4699;DHT22;33708;49.466;11.176;2023-07-13T15:05:44;28.10;1.00
4699;DHT22;33708;49.466;11.176;2023-07-13T15:08:10;28.50;1.00
4699;DHT22;33708;49.466;11.176;2023-07-13T15:10:36;28.50;1.00
4699;DHT22;33708;49.466;11.176;2023-07-13T15:13:15;28.20;1.00
4699;DHT22;33708;49.466;11.176;2023-07-13T15:15:44;28.00;1.00
4699;DHT22;33708;49.466;11.176;2023-07-13T15:18:12;27.70;1.00
4699;DHT22;33708;49.466;11.176;2023-07-13T15:20:38;27.70;1.00
4699;DHT22;33708;49.466;11.176;2023-07-13T15:23:04;27.40;1.00
4699;DHT22;33708;49.466;11.176;2023-07-13T15:25:32;27.40;1.00
4699;DHT22;33708;49.466;11.176;2023-07-13T15:28:01;27.40;1.00
4699;DHT22;33708;49.466;11.176;2023-07-13T15:30:29;27.70;1.00
4699;DHT22;33708;49.466;11.176;2023-07-13T15:32:57;27.20;1.00
4699;DHT22;33708;49.466;11.176;2023-07-13T15:35:25;26.70;1.00
4699;DHT22;33708;49.466;11.176;2023-07-13T15:37:52;26.80;1.00
4699;DHT22;33708;49.466;11.176;2023-07-13T15:40:18;26.70;1.00
4699;DHT22;33708;49.466;11.176;2023-07-13T15:42:47;27.10;1.00
4699;DHT22;33708;49.466;11.176;2023-07-13T15:45:21;27.50;1.00
4699;DHT22;33708;49.466;11.176;2023-07-13T15:47:48;27.20;1.00
4699;DHT22;33708;49.466;11.176;2023-07-13T15:50:19;27.00;1.00
4699;DHT22;33708;49.466;11.176;2023-07-13T15:52:49;26.80;1.00
4699;DHT22;33708;49.466;11.176;2023-07-13T15:55:15;26.40;1.00
4699;DHT22;33708;49.466;11.176;2023-07-13T15:57:47;26.70;1.00
4699;DHT22;33708;49.466;11.176;2023-07-13T16:00:24;26.70;1.00
4699;DHT22;33708;49.466;11.176;2023-07-13T16:02:51;27.30;1.00
4699;DHT22;33708;49.466;11.176;2023-07-13T16:05:18;27.30;1.00
4699;DHT22;33708;49.466;11.176;2023-07-13T16:07:49;27.00;1.00
4699;DHT22;33708;49.466;11.176;2023-07-13T16:10:17;26.70;1.00
4699;DHT22;33708;49.466;11.176;2023-07-13T16:12:43;26.90;1.00
4699;DHT22;33708;49.466;11.176;2023-07-13T16:15:17;27.30;1.00
4699;DHT22;33708;49.466;11.176;2023-07-13T16:17:45;27.30;1.00
4699;DHT22;33708;49.466;11.176;2023-07-13T16:20:12;26.90;1.00
4699;DHT22;33708;49.466;11.176;2023-07-13T16:22:40;26.60;1.00
4699;DHT22;33708;49.466;11.176;2023-07-13T16:25:18;26.40;1.00
4699;DHT22;33708;49.466;11.176;2023-07-13T16:27:48;26.20;1.00